Time;durP1;ratioP1;P1;durP2;ratioP2;P2;SDS_P1;SDS_P2;PMS_P1;PMS_P2;Temp;Humidity;BMP_temperature;BMP_pressure;BME280_temperature;BME280_humidity;BME280_pressure;Samples;Min_cycle;Max_cycle;Signal;HPM_P1;HPM_P2
2023/08/26 00:02:01;;;;;;;5.32;4.40;;;;;;;19.60;100.00;96190.75;5111478;28;20200;-65
2023/08/26 00:04:28;;;;;;;5.13;4.57;;;;;;;19.55;100.00;96201.31;5110926;28;20197;-65
2023/08/26 00:06:54;;;;;;;5.13;4.68;;;;;;;19.53;100.00;96199.84;5110469;28;20209;-66
2023/08/26 00:09:21;;;;;;;4.75;4.40;;;;;;;19.58;100.00;96208.94;5093819;28;20216;-66
2023/08/26 00:11:49;;;;;;;6.13;4.03;;;;;;;19.60;100.00;96209.53;5111389;28;20201;-65
2023/08/26 00:14:17;;;;;;;6.75;4.93;;;;;;;19.59;100.00;96213.25;5111001;28;20197;-64
2023/08/26 00:16:43;;;;;;;6.28;4.38;;;;;;;19.64;100.00;96226.03;5111300;28;20266;-66
2023/08/26 00:19:10;;;;;;;7.22;4.28;;;;;;;19.65;100.00;96225.00;5110144;28;20198;-66
2023/08/26 00:21:37;;;;;;;6.20;4.32;;;;;;;19.71;100.00;96230.34;5110818;28;20197;-64
2023/08/26 00:24:04;;;;;;;5.15;4.38;;;;;;;19.66;100.00;96235.50;5111519;28;20266;-65
2023/08/26 00:26:31;;;;;;;6.20;4.43;;;;;;;19.72;100.00;96244.59;5111149;28;20236;-64
2023/08/26 00:28:58;;;;;;;7.07;4.57;;;;;;;19.73;100.00;96252.41;5111115;28;20208;-65
2023/08/26 00:31:26;;;;;;;5.90;4.35;;;;;;;19.74;100.00;96258.63;5111052;28;20518;-64
2023/08/26 00:33:53;;;;;;;4.97;4.07;;;;;;;19.75;100.00;96253.06;5110703;28;20204;-65
2023/08/26 00:36:19;;;;;;;6.15;4.25;;;;;;;19.74;100.00;96253.25;5111133;28;20189;-64
2023/08/26 00:38:46;;;;;;;6.00;4.45;;;;;;;19.73;100.00;96260.47;5111778;28;20202;-65
2023/08/26 00:41:12;;;;;;;5.07;4.30;;;;;;;19.76;100.00;96252.03;5113391;28;20215;-65
2023/08/26 00:43:39;;;;;;;5.20;4.38;;;;;;;19.83;100.00;96262.75;5113502;28;20209;-65
2023/08/26 00:46:05;;;;;;;5.88;4.13;;;;;;;19.83;100.00;96258.22;5114805;28;20217;-65
2023/08/26 00:48:33;;;;;;;5.35;4.47;;;;;;;19.80;100.00;96260.50;5117366;28;20201;-65
2023/08/26 00:50:59;;;;;;;4.78;4.38;;;;;;;19.83;100.00;96255.53;5122266;28;20197;-65
2023/08/26 00:53:26;;;;;;;5.10;4.68;;;;;;;19.77;100.00;96261.69;5117861;28;20209;-66
2023/08/26 00:55:53;;;;;;;4.72;4.28;;;;;;;19.83;100.00;96268.94;5097041;28;20193;-65
2023/08/26 00:58:20;;;;;;;5.05;4.57;;;;;;;19.83;100.00;96263.56;5114213;28;20270;-66
2023/08/26 01:00:46;;;;;;;5.88;4.90;;;;;;;19.87;100.00;96270.16;5114407;28;20260;-65
2023/08/26 01:03:13;;;;;;;4.82;4.43;;;;;;;19.92;100.00;96271.38;5114695;28;20201;-65
2023/08/26 01:05:41;;;;;;;6.50;4.63;;;;;;;19.93;100.00;96279.22;5114135;28;20216;-64
2023/08/26 01:08:08;;;;;;;5.47;4.07;;;;;;;19.86;100.00;96273.88;5113077;28;20641;-64
2023/08/26 01:10:43;;;;;;;6.50;4.20;;;;;;;19.90;100.00;96292.25;5111383;28;20193;-63
2023/08/26 01:13:12;;;;;;;5.25;4.68;;;;;;;19.86;100.00;96289.97;5111409;28;20193;-64
2023/08/26 01:15:43;;;;;;;4.05;3.75;;;;;;;19.88;100.00;96287.91;5111159;28;20270;-65
2023/08/26 01:18:13;;;;;;;4.93;4.43;;;;;;;19.90;100.00;96278.81;5114397;28;20216;-65
2023/08/26 01:20:41;;;;;;;5.05;4.20;;;;;;;19.94;100.00;96290.78;5114789;28;20289;-66
2023/08/26 01:23:14;;;;;;;4.53;4.10;;;;;;;19.92;100.00;96287.47;5115638;28;20258;-64
2023/08/26 01:25:42;;;;;;;4.65;4.20;;;;;;;19.94;100.00;96275.53;5114627;28;20219;-67
2023/08/26 01:28:09;;;;;;;4.63;4.18;;;;;;;19.98;100.00;96273.25;5114629;28;20213;-65
2023/08/26 01:30:36;;;;;;;6.07;4.60;;;;;;;19.98;100.00;96278.63;5114155;28;20216;-66
2023/08/26 01:33:07;;;;;;;6.15;4.75;;;;;;;20.00;100.00;96282.72;5114690;28;20204;-64
2023/08/26 01:35:37;;;;;;;6.10;4.25;;;;;;;20.00;100.00;96269.31;5114467;28;20197;-65
2023/08/26 01:38:05;;;;;;;4.70;4.30;;;;;;;20.04;100.00;96261.66;5115284;28;20276;-64
2023/08/26 01:40:31;;;;;;;6.47;4.60;;;;;;;20.04;100.00;96269.72;5113847;28;20205;-65
2023/08/26 01:42:59;;;;;;;6.43;4.70;;;;;;;19.98;100.00;96276.72;5114522;28;20303;-64
2023/08/26 01:45:26;;;;;;;9.52;4.70;;;;;;;20.04;100.00;96281.28;5113585;28;20536;-63
2023/08/26 01:47:53;;;;;;;5.40;4.65;;;;;;;20.09;100.00;96283.31;5114213;28;20250;-65
2023/08/26 01:50:19;;;;;;;5.13;4.68;;;;;;;20.08;100.00;96284.38;5113617;28;20218;-68
2023/08/26 01:52:46;;;;;;;6.47;5.00;;;;;;;20.12;100.00;96288.28;5113455;28;20197;-67
2023/08/26 01:55:13;;;;;;;5.53;4.47;;;;;;;20.14;100.00;96294.25;5113216;28;20212;-65
2023/08/26 01:57:39;;;;;;;5.32;4.47;;;;;;;20.15;100.00;96287.84;5113903;28;20205;-65
2023/08/26 02:00:09;;;;;;;5.93;4.68;;;;;;;20.16;100.00;96289.47;5112802;28;20194;-64
2023/08/26 02:02:35;;;;;;;5.78;4.60;;;;;;;20.18;100.00;96301.69;5114067;28;20499;-64
2023/08/26 02:05:02;;;;;;;5.43;4.93;;;;;;;20.20;100.00;96304.13;5113275;28;20205;-65
2023/08/26 02:07:28;;;;;;;6.97;4.95;;;;;;;20.18;100.00;96309.72;5113973;28;20220;-65
2023/08/26 02:09:55;;;;;;;9.45;4.97;;;;;;;20.19;100.00;96310.56;5113270;28;20706;-64
2023/08/26 02:12:21;;;;;;;8.60;4.90;;;;;;;20.19;100.00;96311.38;5113843;28;20201;-67
2023/08/26 02:14:48;;;;;;;8.63;5.10;;;;;;;20.21;100.00;96309.31;5112998;28;20212;-64
2023/08/26 02:17:16;;;;;;;7.35;4.90;;;;;;;20.23;100.00;96317.13;5113558;28;20283;-64
2023/08/26 02:19:42;;;;;;;6.03;4.68;;;;;;;20.20;100.00;96318.38;5113028;28;20205;-64
2023/08/26 02:22:09;;;;;;;6.95;5.15;;;;;;;20.23;100.00;96322.50;5114094;28;20239;-64
2023/08/26 02:24:36;;;;;;;6.72;4.85;;;;;;;20.23;100.00;96338.63;5113430;28;20216;-63
2023/08/26 02:27:03;;;;;;;5.38;4.93;;;;;;;20.22;100.00;96335.13;5113733;28;20576;-64
2023/08/26 02:29:31;;;;;;;4.80;4.40;;;;;;;20.27;100.00;96334.47;5112042;28;20780;-65
2023/08/26 02:31:57;;;;;;;5.35;4.60;;;;;;;20.28;100.00;96331.63;5113828;28;20193;-64
2023/08/26 02:34:25;;;;;;;5.88;4.90;;;;;;;20.30;100.00;96339.44;5114668;28;20198;-65
2023/08/26 02:36:52;;;;;;;6.47;4.68;;;;;;;20.28;100.00;96345.06;5114379;28;20201;-65
2023/08/26 02:39:19;;;;;;;6.65;4.90;;;;;;;20.28;100.00;96346.91;5114117;28;20201;-66
2023/08/26 02:41:45;;;;;;;4.90;4.38;;;;;;;20.27;100.00;96358.66;5114245;28;20216;-65
2023/08/26 02:44:12;;;;;;;6.07;4.53;;;;;;;20.31;100.00;96351.84;5114162;28;20197;-66
2023/08/26 02:46:38;;;;;;;7.95;5.07;;;;;;;20.30;100.00;96339.44;5113903;28;20236;-64
2023/08/26 02:49:04;;;;;;;5.72;4.75;;;;;;;20.32;100.00;96351.66;5114197;28;20200;-65
2023/08/26 02:51:32;;;;;;;5.07;4.60;;;;;;;20.33;100.00;96345.22;5114450;28;20209;-65
2023/08/26 02:53:59;;;;;;;7.10;4.88;;;;;;;20.23;100.00;96343.97;5113826;28;20204;-64
2023/08/26 02:56:25;;;;;;;5.30;4.80;;;;;;;20.30;100.00;96344.81;5115474;28;20216;-65
2023/08/26 02:58:53;;;;;;;6.13;4.65;;;;;;;20.32;100.00;96342.78;5115372;28;20205;-65
2023/08/26 03:01:19;;;;;;;6.43;4.65;;;;;;;20.37;100.00;96340.25;5117319;28;20515;-64
2023/08/26 03:03:46;;;;;;;6.63;4.72;;;;;;;20.36;100.00;96357.44;5116674;28;20516;-64
2023/08/26 03:06:12;;;;;;;7.32;5.07;;;;;;;20.34;100.00;96352.25;5114349;28;20213;-64
2023/08/26 03:08:40;;;;;;;6.53;4.75;;;;;;;20.38;100.00;96351.84;5115257;28;20209;-65
2023/08/26 03:11:07;;;;;;;12.13;5.10;;;;;;;20.32;100.00;96348.97;5115786;28;20193;-65
2023/08/26 03:13:34;;;;;;;9.48;5.63;;;;;;;20.35;100.00;96351.22;5113192;28;20197;-65
2023/08/26 03:16:07;;;;;;;8.25;5.00;;;;;;;20.29;100.00;96365.50;5112732;28;20240;-64
2023/08/26 03:18:33;;;;;;;8.93;5.13;;;;;;;20.17;100.00;96356.41;5113938;28;20220;-67
2023/08/26 03:21:03;;;;;;;9.65;4.80;;;;;;;20.20;100.00;96355.16;5112734;28;20240;-64
2023/08/26 03:23:29;;;;;;;7.18;5.25;;;;;;;20.23;100.00;96350.19;5113003;28;20205;-66
2023/08/26 03:25:57;;;;;;;6.05;5.07;;;;;;;20.23;100.00;96354.72;5112293;28;20229;-64
2023/08/26 03:28:24;;;;;;;7.47;5.03;;;;;;;20.17;100.00;96344.84;5114533;28;20258;-66
2023/08/26 03:30:50;;;;;;;7.45;4.93;;;;;;;20.17;100.00;96334.09;5112616;28;20231;-65
2023/08/26 03:33:17;;;;;;;6.68;5.30;;;;;;;19.97;100.00;96338.69;5111593;28;20228;-65
2023/08/26 03:35:43;;;;;;;7.95;5.07;;;;;;;19.96;100.00;96335.16;5111567;28;20244;-65
2023/08/26 03:38:09;;;;;;;9.10;5.68;;;;;;;19.99;100.00;96337.44;5111676;28;20209;-65
2023/08/26 03:40:39;;;;;;;6.13;5.32;;;;;;;20.01;100.00;96334.56;5111292;28;20208;-65
2023/08/26 03:43:07;;;;;;;6.07;5.20;;;;;;;20.03;100.00;96337.84;5111780;28;20205;-66
2023/08/26 03:45:34;;;;;;;8.23;5.20;;;;;;;19.98;100.00;96340.34;5111132;28;20212;-64
2023/08/26 03:48:00;;;;;;;6.43;5.72;;;;;;;19.97;100.00;96330.63;5111654;28;20628;-64
2023/08/26 03:50:27;;;;;;;6.88;4.90;;;;;;;20.00;100.00;96336.41;5111007;28;20205;-65
2023/08/26 03:52:53;;;;;;;8.13;5.53;;;;;;;20.00;100.00;96330.22;5111246;28;20216;-67
2023/08/26 03:55:20;;;;;;;7.38;4.97;;;;;;;19.93;100.00;96326.72;5111253;28;20212;-64
2023/08/26 03:57:46;;;;;;;6.22;5.35;;;;;;;19.84;100.00;96318.88;5111275;28;20628;-64
2023/08/26 04:00:17;;;;;;;5.75;5.07;;;;;;;19.87;100.00;96321.13;5111499;28;20196;-66
2023/08/26 04:02:43;;;;;;;8.27;5.18;;;;;;;19.79;100.00;96320.53;5111760;28;20266;-65
2023/08/26 04:05:10;;;;;;;7.70;5.38;;;;;;;19.72;100.00;96315.19;5110991;28;20230;-65
2023/08/26 04:07:37;;;;;;;7.28;5.10;;;;;;;19.69;100.00;96326.34;5111463;28;20232;-65
2023/08/26 04:10:04;;;;;;;7.13;4.90;;;;;;;19.63;100.00;96329.81;5110885;28;20560;-65
2023/08/26 04:12:30;;;;;;;8.65;5.53;;;;;;;19.53;100.00;96337.47;5111119;28;20225;-64
2023/08/26 04:14:57;;;;;;;6.20;5.60;;;;;;;19.44;100.00;96328.00;5110995;28;20204;-64
2023/08/26 04:17:24;;;;;;;6.05;5.38;;;;;;;19.45;100.00;96334.19;5111515;28;20208;-65
2023/08/26 04:19:51;;;;;;;8.73;5.00;;;;;;;19.39;100.00;96335.78;5110835;28;20216;-65
2023/08/26 04:22:18;;;;;;;8.48;5.30;;;;;;;19.41;100.00;96336.44;5110953;28;20297;-66
2023/08/26 04:24:44;;;;;;;8.98;5.18;;;;;;;19.35;100.00;96340.72;5110387;28;20200;-63
2023/08/26 04:27:11;;;;;;;7.90;5.65;;;;;;;19.38;100.00;96334.13;5110668;28;20232;-65
2023/08/26 04:29:37;;;;;;;5.95;4.88;;;;;;;19.37;100.00;96332.50;5110695;28;20220;-66
2023/08/26 04:32:04;;;;;;;5.82;5.32;;;;;;;19.38;100.00;96336.78;5110969;28;20213;-64
2023/08/26 04:34:32;;;;;;;6.13;5.53;;;;;;;19.36;100.00;96339.69;5110954;28;20216;-66
2023/08/26 04:36:59;;;;;;;8.50;5.57;;;;;;;19.34;100.00;96328.34;5110538;28;20533;-64
2023/08/26 04:39:25;;;;;;;6.57;5.03;;;;;;;19.29;100.00;96325.47;5110855;28;20301;-67
2023/08/26 04:41:52;;;;;;;8.63;5.50;;;;;;;19.22;100.00;96329.16;5111027;28;20205;-65
2023/08/26 04:44:18;;;;;;;9.05;5.55;;;;;;;19.19;100.00;96334.94;5110785;28;20196;-64
2023/08/26 04:46:45;;;;;;;8.15;5.50;;;;;;;19.13;100.00;96325.03;5110332;28;20315;-66
2023/08/26 04:49:11;;;;;;;8.15;5.28;;;;;;;19.17;100.00;96329.75;5111138;28;20552;-65
2023/08/26 04:51:39;;;;;;;8.80;5.30;;;;;;;19.08;100.00;96335.53;5109727;28;20212;-64
2023/08/26 04:54:06;;;;;;;5.50;5.00;;;;;;;19.06;100.00;96332.25;5110295;28;20216;-64
2023/08/26 04:56:32;;;;;;;10.10;4.90;;;;;;;19.05;100.00;96330.59;5110164;28;20215;-65
2023/08/26 04:58:58;;;;;;;9.40;5.40;;;;;;;19.07;100.00;96325.84;5110705;28;20231;-63
2023/08/26 05:01:26;;;;;;;7.40;5.00;;;;;;;19.05;100.00;96333.25;5110504;28;20755;-63
2023/08/26 05:03:52;;;;;;;6.75;4.80;;;;;;;19.02;100.00;96328.31;5111385;28;20201;-65
2023/08/26 05:06:19;;;;;;;10.90;4.85;;;;;;;19.04;100.00;96326.25;5110352;28;20229;-64
2023/08/26 05:08:46;;;;;;;6.53;5.10;;;;;;;19.04;100.00;96328.91;5111800;28;20208;-66
2023/08/26 05:11:13;;;;;;;6.57;5.38;;;;;;;19.04;100.00;96324.38;5110338;28;20519;-65
2023/08/26 05:13:39;;;;;;;7.32;5.05;;;;;;;19.00;100.00;96330.34;5110783;28;20204;-65
2023/08/26 05:16:06;;;;;;;9.27;5.50;;;;;;;18.98;100.00;96333.25;5110835;28;20215;-65
2023/08/26 05:18:32;;;;;;;7.65;5.20;;;;;;;18.98;100.00;96337.78;5110832;28;20197;-64
2023/08/26 05:21:00;;;;;;;6.25;5.45;;;;;;;18.97;100.00;96350.34;5110295;28;20201;-66
2023/08/26 05:23:27;;;;;;;7.38;5.60;;;;;;;19.00;100.00;96355.31;5110953;28;20201;-65
2023/08/26 05:25:55;;;;;;;12.32;5.20;;;;;;;19.09;100.00;96361.31;5109764;28;20240;-65
2023/08/26 05:28:21;;;;;;;10.13;5.18;;;;;;;19.14;100.00;96358.84;5110370;28;20193;-64
2023/08/26 05:30:48;;;;;;;6.97;5.25;;;;;;;19.23;100.00;96357.63;5110035;28;20629;-65
2023/08/26 05:33:14;;;;;;;11.95;6.25;;;;;;;19.16;100.00;96354.94;5110411;28;20220;-65
2023/08/26 05:35:41;;;;;;;6.20;5.63;;;;;;;19.27;100.00;96354.31;5109555;28;20216;-65
2023/08/26 05:38:07;;;;;;;8.00;6.25;;;;;;;19.36;100.00;96360.31;5110103;28;20201;-64
2023/08/26 05:40:34;;;;;;;6.63;5.38;;;;;;;19.41;100.00;96352.53;5110192;28;20637;-64
2023/08/26 05:43:02;;;;;;;5.60;5.10;;;;;;;19.47;100.00;96349.03;5110764;28;20196;-65
2023/08/26 05:45:29;;;;;;;6.05;5.32;;;;;;;19.52;100.00;96349.22;5110498;28;20209;-65
2023/08/26 05:47:55;;;;;;;6.90;5.50;;;;;;;19.55;100.00;96348.00;5110005;28;20696;-65
2023/08/26 05:50:22;;;;;;;9.10;5.85;;;;;;;19.62;100.00;96360.38;5109785;28;20209;-65
2023/08/26 05:52:48;;;;;;;6.50;5.30;;;;;;;19.65;100.00;96353.78;5109985;28;20636;-65
2023/08/26 05:55:15;;;;;;;7.40;5.82;;;;;;;19.62;100.00;96357.72;5109954;28;20202;-65
2023/08/26 05:57:42;;;;;;;6.40;5.85;;;;;;;19.66;100.00;96358.91;5109947;28;20694;-65
2023/08/26 06:00:11;;;;;;;9.15;5.78;;;;;;;19.71;100.00;96355.63;5110304;28;20656;-67
2023/08/26 06:02:38;;;;;;;8.20;5.65;;;;;;;19.75;100.00;96357.69;5111636;28;20530;-65
2023/08/26 06:05:05;;;;;;;10.77;6.20;;;;;;;19.80;100.00;96354.41;5112200;28;20629;-65
2023/08/26 06:07:31;;;;;;;8.73;6.05;;;;;;;19.80;100.00;96360.56;5114114;28;20239;-64
2023/08/26 06:09:58;;;;;;;9.25;5.85;;;;;;;19.80;100.00;96365.13;5113190;28;20534;-64
2023/08/26 06:12:24;;;;;;;6.47;5.88;;;;;;;19.81;100.00;96362.22;5113638;28;20201;-64
2023/08/26 06:14:51;;;;;;;7.50;6.07;;;;;;;19.84;100.00;96356.44;5113074;28;20648;-65
2023/08/26 06:17:18;;;;;;;6.45;5.65;;;;;;;19.90;100.00;96345.91;5113627;28;20205;-66
2023/08/26 06:19:45;;;;;;;6.72;5.82;;;;;;;20.00;100.00;96349.00;5112736;28;20205;-66
2023/08/26 06:22:12;;;;;;;6.40;5.80;;;;;;;20.12;100.00;96336.59;5113884;28;20213;-64
2023/08/26 06:24:38;;;;;;;8.82;6.07;;;;;;;20.20;100.00;96322.94;5112685;28;20596;-64
2023/08/26 06:27:06;;;;;;;7.25;6.22;;;;;;;20.33;100.00;96322.94;5113338;28;20543;-64
2023/08/26 06:29:32;;;;;;;11.20;6.70;;;;;;;20.41;100.00;96325.38;5113230;28;20254;-67
2023/08/26 06:31:59;;;;;;;8.27;6.32;;;;;;;20.49;100.00;96321.63;5113296;28;20220;-64
2023/08/26 06:34:27;;;;;;;8.30;5.72;;;;;;;20.62;100.00;96317.03;5112838;28;20216;-65
2023/08/26 06:36:54;;;;;;;9.38;6.25;;;;;;;20.63;100.00;96313.31;5112418;28;20198;-65
2023/08/26 06:39:21;;;;;;;6.25;5.55;;;;;;;20.71;100.00;96310.38;5112816;28;20204;-64
2023/08/26 06:41:47;;;;;;;9.23;6.20;;;;;;;20.69;100.00;96311.66;5112949;28;20206;-66
2023/08/26 06:44:14;;;;;;;8.55;5.90;;;;;;;20.70;100.00;96314.09;5112769;28;20577;-64
2023/08/26 06:46:40;;;;;;;7.88;5.90;;;;;;;20.79;100.00;96318.22;5112189;28;20228;-66
2023/08/26 06:49:07;;;;;;;11.85;5.85;;;;;;;20.85;100.00;96308.44;5112579;28;20641;-65
2023/08/26 06:51:35;;;;;;;10.18;6.03;;;;;;;20.89;100.00;96312.38;5112534;28;20201;-65
2023/08/26 06:54:02;;;;;;;9.48;5.93;;;;;;;20.93;100.00;96318.13;5112844;28;20208;-68
2023/08/26 06:56:28;;;;;;;6.30;5.60;;;;;;;20.93;100.00;96312.75;5113068;28;20204;-64
2023/08/26 06:58:55;;;;;;;6.90;5.43;;;;;;;20.74;100.00;96314.50;5113033;28;20197;-64
2023/08/26 07:01:22;;;;;;;6.75;5.00;;;;;;;20.81;100.00;96304.53;5113010;28;20651;-63
2023/08/26 07:03:48;;;;;;;7.32;5.35;;;;;;;20.84;100.00;96315.69;5113060;28;20209;-65
2023/08/26 07:06:15;;;;;;;8.65;5.43;;;;;;;20.87;100.00;96314.44;5112097;28;20205;-65
2023/08/26 07:08:43;;;;;;;5.70;4.57;;;;;;;20.95;100.00;96313.34;5111993;28;20225;-65
2023/08/26 07:11:10;;;;;;;6.45;4.93;;;;;;;21.04;100.00;96320.13;5111738;28;20193;-67
2023/08/26 07:13:37;;;;;;;5.85;5.43;;;;;;;21.08;100.00;96314.09;5113094;28;20304;-67
2023/08/26 07:16:04;;;;;;;6.78;4.50;;;;;;;21.14;100.00;96309.75;5111765;28;20216;-65
2023/08/26 07:18:30;;;;;;;8.27;5.40;;;;;;;21.11;100.00;96321.78;5111878;28;20205;-64
2023/08/26 07:20:57;;;;;;;8.70;5.53;;;;;;;21.05;100.00;96316.38;5111339;28;20213;-64
2023/08/26 07:23:23;;;;;;;7.20;5.10;;;;;;;21.09;100.00;96320.31;5112311;28;20254;-65
2023/08/26 07:25:51;;;;;;;8.23;5.25;;;;;;;21.04;100.00;96317.44;5112061;28;20205;-65
2023/08/26 07:28:18;;;;;;;9.20;5.00;;;;;;;21.05;100.00;96311.84;5112022;28;20236;-65
2023/08/26 07:30:44;;;;;;;8.73;4.90;;;;;;;21.02;100.00;96311.44;5112176;28;20295;-65
2023/08/26 07:33:11;;;;;;;9.60;5.32;;;;;;;21.03;100.00;96307.72;5111815;28;20201;-65
2023/08/26 07:35:37;;;;;;;6.78;5.05;;;;;;;21.02;100.00;96306.06;5112192;28;20201;-64
2023/08/26 07:38:04;;;;;;;9.82;5.35;;;;;;;20.84;100.00;96309.47;5111681;28;20201;-66
2023/08/26 07:40:30;;;;;;;6.00;4.78;;;;;;;20.91;100.00;96302.22;5111917;28;20193;-66
2023/08/26 07:42:59;;;;;;;8.02;4.60;;;;;;;20.92;100.00;96305.72;5112342;28;20205;-64
2023/08/26 07:45:26;;;;;;;5.97;4.93;;;;;;;20.83;100.00;96319.41;5111450;28;20216;-64
2023/08/26 07:47:52;;;;;;;5.47;4.80;;;;;;;20.83;100.00;96318.59;5111530;28;20569;-65
2023/08/26 07:50:19;;;;;;;5.38;4.88;;;;;;;20.77;100.00;96322.97;5111747;28;20215;-65
2023/08/26 07:52:45;;;;;;;5.97;4.82;;;;;;;20.75;100.00;96330.44;5111925;28;20216;-63
2023/08/26 07:55:12;;;;;;;5.75;4.88;;;;;;;20.69;100.00;96333.94;5111726;28;20201;-67
2023/08/26 07:57:38;;;;;;;9.50;5.25;;;;;;;20.63;100.00;96340.19;5111890;28;20204;-63
2023/08/26 08:00:08;;;;;;;5.57;4.82;;;;;;;20.59;100.00;96344.31;5111145;28;20205;-65
2023/08/26 08:02:36;;;;;;;6.95;4.97;;;;;;;20.55;100.00;96347.63;5111624;28;20229;-65
2023/08/26 08:05:02;;;;;;;6.40;4.82;;;;;;;20.51;100.00;96346.44;5111651;28;20205;-64
2023/08/26 08:07:31;;;;;;;4.97;4.47;;;;;;;20.46;100.00;96340.88;5112260;28;20213;-65
2023/08/26 08:09:57;;;;;;;6.97;4.63;;;;;;;20.46;100.00;96333.63;5111230;28;20201;-65
2023/08/26 08:12:24;;;;;;;11.77;4.70;;;;;;;20.47;100.00;96324.56;5111595;28;20300;-64
2023/08/26 08:14:50;;;;;;;8.02;4.85;;;;;;;20.49;100.00;96322.47;5111433;28;20231;-65
2023/08/26 08:17:18;;;;;;;8.00;5.38;;;;;;;20.50;100.00;96313.38;5111655;28;20208;-66
2023/08/26 08:19:45;;;;;;;6.45;4.65;;;;;;;20.47;100.00;96323.72;5110918;28;20201;-65
2023/08/26 08:22:12;;;;;;;7.93;4.85;;;;;;;20.49;100.00;96319.78;5111686;28;20193;-66
2023/08/26 08:24:39;;;;;;;7.63;5.05;;;;;;;20.49;100.00;96321.63;5111373;28;20228;-65
2023/08/26 08:27:05;;;;;;;8.52;4.65;;;;;;;20.45;100.00;96325.78;5110399;28;20225;-64
2023/08/26 08:29:31;;;;;;;6.88;4.35;;;;;;;20.46;100.00;96322.88;5111017;28;20288;-66
2023/08/26 08:31:58;;;;;;;9.07;5.00;;;;;;;20.52;100.00;96338.16;5111169;28;20197;-65
2023/08/26 08:34:26;;;;;;;5.78;4.43;;;;;;;20.56;100.00;96334.00;5109908;28;20216;-65
2023/08/26 08:36:52;;;;;;;7.00;4.30;;;;;;;20.59;100.00;96336.25;5110683;28;20638;-64
2023/08/26 08:39:19;;;;;;;6.50;4.80;;;;;;;20.58;100.00;96317.69;5111000;28;20209;-65
2023/08/26 08:41:49;;;;;;;5.57;4.82;;;;;;;20.51;100.00;96320.38;5111206;28;20220;-65
2023/08/26 08:44:16;;;;;;;6.20;5.00;;;;;;;20.52;100.00;96316.66;5111612;28;20204;-65
2023/08/26 08:46:43;;;;;;;5.97;4.55;;;;;;;20.61;100.00;96328.00;5111692;28;20288;-67
2023/08/26 08:49:11;;;;;;;10.75;5.28;;;;;;;20.63;100.00;96334.81;5111331;28;20217;-65
2023/08/26 08:51:40;;;;;;;7.63;4.80;;;;;;;20.54;100.00;96328.03;5110608;28;20220;-65
2023/08/26 08:54:07;;;;;;;7.10;4.55;;;;;;;20.57;100.00;96326.78;5111293;28;20193;-66
2023/08/26 08:56:33;;;;;;;9.48;4.65;;;;;;;20.58;100.00;96323.84;5110917;28;20285;-65
2023/08/26 08:59:01;;;;;;;7.47;4.63;;;;;;;20.66;100.00;96312.88;5112220;28;20193;-63
2023/08/26 09:01:31;;;;;;;6.40;4.53;;;;;;;20.68;100.00;96307.31;5111676;28;20251;-64
2023/08/26 09:03:57;;;;;;;6.03;4.30;;;;;;;20.65;100.00;96303.16;5112480;28;20205;-64
2023/08/26 09:06:24;;;;;;;5.85;4.18;;;;;;;20.71;100.00;96302.31;5110626;28;20205;-67
2023/08/26 09:08:52;;;;;;;7.63;4.40;;;;;;;20.71;100.00;96310.38;5112242;28;20656;-64
2023/08/26 09:11:18;;;;;;;7.05;4.47;;;;;;;20.74;100.00;96307.28;5111622;28;20201;-66
2023/08/26 09:13:45;;;;;;;5.30;4.57;;;;;;;20.81;100.00;96300.00;5111875;28;20213;-67
2023/08/26 09:16:11;;;;;;;4.43;3.90;;;;;;;20.87;100.00;96294.81;5112006;28;20216;-65
2023/08/26 09:18:39;;;;;;;7.20;4.55;;;;;;;20.88;100.00;96283.81;5114724;28;20201;-66
2023/08/26 09:21:08;;;;;;;6.32;4.47;;;;;;;21.02;100.00;96273.81;5116635;28;20273;-64
2023/08/26 09:23:41;;;;;;;5.28;4.60;;;;;;;21.18;100.00;96265.28;5117399;28;20209;-64
2023/08/26 09:26:09;;;;;;;9.50;4.72;;;;;;;21.28;100.00;96270.97;5115794;28;20217;-63
2023/08/26 09:28:36;;;;;;;9.02;4.40;;;;;;;21.39;100.00;96272.97;5113700;28;20230;-65
2023/08/26 09:31:04;;;;;;;7.47;4.38;;;;;;;21.43;100.00;96279.56;5111043;28;20518;-64
2023/08/26 09:33:30;;;;;;;7.38;4.93;;;;;;;21.53;100.00;96271.81;5112898;28;20571;-64
2023/08/26 09:35:58;;;;;;;7.22;4.47;;;;;;;21.69;100.00;96263.16;5111557;28;20209;-68
2023/08/26 09:38:24;;;;;;;4.68;4.28;;;;;;;21.78;100.00;96261.84;5113963;28;20530;-66
2023/08/26 09:40:56;;;;;;;5.03;4.30;;;;;;;21.83;100.00;96256.59;5115542;28;20212;-66
2023/08/26 09:43:24;;;;;;;5.25;4.32;;;;;;;22.02;100.00;96259.34;5115842;28;20205;-65
2023/08/26 09:45:55;;;;;;;4.95;4.45;;;;;;;22.18;100.00;96256.88;5115198;28;20205;-67
2023/08/26 09:48:22;;;;;;;7.20;4.57;;;;;;;22.27;100.00;96262.78;5116376;28;20224;-67
2023/08/26 09:50:48;;;;;;;5.57;4.40;;;;;;;22.28;100.00;96262.56;5116355;28;20209;-66
2023/08/26 09:53:28;;;;;;;5.07;4.40;;;;;;;22.32;100.00;96260.22;5117638;28;20227;-68
2023/08/26 09:55:55;;;;;;;6.35;4.45;;;;;;;22.23;100.00;96270.50;5119425;28;20186;-67
2023/08/26 09:58:26;;;;;;;6.00;4.60;;;;;;;22.29;100.00;96274.97;5117143;28;20198;-66
2023/08/26 10:00:54;;;;;;;7.53;4.22;;;;;;;22.25;100.00;96275.66;5116938;28;20300;-65
2023/08/26 10:03:23;;;;;;;5.28;4.65;;;;;;;22.13;100.00;96282.84;5119901;28;20193;-65
2023/08/26 10:05:53;;;;;;;7.78;4.32;;;;;;;22.02;100.00;96287.09;5119666;28;20197;-66
2023/08/26 10:08:23;;;;;;;7.22;4.03;;;;;;;21.93;100.00;96311.84;5117731;28;20266;-68
2023/08/26 10:10:53;;;;;;;4.95;4.35;;;;;;;21.89;100.00;96324.06;5116002;28;20213;-66
2023/08/26 10:13:22;;;;;;;7.35;4.57;;;;;;;21.64;100.00;96335.69;5114885;28;20266;-65
2023/08/26 10:15:52;;;;;;;6.82;4.40;;;;;;;21.48;100.00;96341.59;5113861;28;20846;-66
2023/08/26 10:18:28;;;;;;;6.47;4.00;;;;;;;21.33;100.00;96358.03;5078961;28;20288;-66
2023/08/26 10:20:55;;;;;;;4.60;4.13;;;;;;;21.22;100.00;96363.31;5113920;28;20197;-65
2023/08/26 10:23:23;;;;;;;7.18;4.43;;;;;;;21.15;100.00;96386.72;5114475;28;20197;-66
2023/08/26 10:25:50;;;;;;;6.63;4.82;;;;;;;21.02;100.00;96394.78;5114650;28;20736;-66
2023/08/26 10:28:17;;;;;;;7.20;4.43;;;;;;;20.89;100.00;96392.19;5114388;28;20260;-64
2023/08/26 10:30:45;;;;;;;7.45;4.80;;;;;;;20.71;100.00;96393.69;5114175;28;20208;-67
2023/08/26 10:33:13;;;;;;;6.72;4.68;;;;;;;20.58;100.00;96407.16;5114943;28;20527;-65
2023/08/26 10:35:40;;;;;;;7.45;5.00;;;;;;;20.31;100.00;96403.72;5116317;28;20196;-66
2023/08/26 10:38:10;;;;;;;5.43;3.90;;;;;;;20.11;100.00;96399.38;5115579;28;20208;-65
2023/08/26 10:40:37;;;;;;;8.13;4.47;;;;;;;20.03;100.00;96387.00;5113494;28;20204;-65
2023/08/26 10:43:04;;;;;;;6.97;4.57;;;;;;;19.79;100.00;96379.56;5114532;28;20209;-67
2023/08/26 10:45:31;;;;;;;9.85;4.30;;;;;;;19.72;100.00;96373.38;5114012;28;20209;-67
2023/08/26 10:47:59;;;;;;;5.95;4.65;;;;;;;19.77;100.00;96370.88;5114418;28;20698;-67
2023/08/26 10:50:28;;;;;;;9.57;4.63;;;;;;;19.80;100.00;96382.03;5113054;28;20254;-66
2023/08/26 10:52:56;;;;;;;8.13;4.38;;;;;;;19.67;100.00;96386.56;5096479;28;20499;-66
2023/08/26 10:55:24;;;;;;;8.77;4.60;;;;;;;19.69;100.00;96390.72;5114562;28;20286;-65
2023/08/26 10:58:12;;;;;;;9.60;4.53;;;;;;;19.56;100.00;96389.88;5114186;28;20799;-64
2023/08/26 11:00:39;;;;;;;9.68;4.72;;;;;;;19.38;100.00;96396.63;5114581;28;20217;-65
2023/08/26 11:03:08;;;;;;;7.93;4.90;;;;;;;19.31;100.00;96392.28;5113926;28;20262;-68
2023/08/26 11:05:39;;;;;;;5.95;4.47;;;;;;;19.39;100.00;96382.19;5122951;28;20255;-66
2023/08/26 11:08:06;;;;;;;8.15;4.55;;;;;;;19.49;100.00;96372.94;5121419;28;20208;-65
2023/08/26 11:10:34;;;;;;;7.50;4.63;;;;;;;19.47;100.00;96375.00;5123894;28;20200;-67
2023/08/26 11:13:01;;;;;;;5.78;4.28;;;;;;;19.48;100.00;96374.00;5133941;28;20209;-65
2023/08/26 11:15:31;;;;;;;6.00;4.18;;;;;;;19.39;100.00;96368.78;5083033;28;20249;-65
2023/08/26 11:17:58;;;;;;;6.55;4.45;;;;;;;19.39;100.00;96362.59;5115758;28;20262;-65
2023/08/26 11:20:27;;;;;;;7.53;4.65;;;;;;;19.31;100.00;96352.88;5126733;28;20209;-64
2023/08/26 11:22:56;;;;;;;4.45;3.70;;;;;;;19.31;100.00;96349.38;5121976;28;20254;-64
2023/08/26 11:25:25;;;;;;;6.60;4.63;;;;;;;19.37;100.00;96360.13;5130375;28;20201;-69